createdAt,value
2023-04-18T00:00:58.250Z,37.46
2023-04-18T00:03:24.975Z,37.45
2023-04-18T00:05:51.771Z,37.94
2023-04-18T00:08:18.409Z,37.74
2023-04-18T00:10:48.072Z,37.55
2023-04-18T00:13:14.644Z,37.81
2023-04-18T00:15:41.186Z,37.45
2023-04-18T00:18:07.848Z,37.43
2023-04-18T00:20:34.364Z,37.92
2023-04-18T00:23:00.836Z,37.61
2023-04-18T00:25:27.281Z,37.64
2023-04-18T00:27:53.857Z,37.62
2023-04-18T00:30:20.368Z,38.05
2023-04-18T00:32:46.902Z,37.68
2023-04-18T00:35:13.548Z,37.69
2023-04-18T00:37:40.095Z,37.70
2023-04-18T00:40:06.582Z,37.85
2023-04-18T00:42:33.083Z,37.96
2023-04-18T00:44:59.556Z,37.77
2023-04-18T00:47:29.079Z,37.67
2023-04-18T00:49:55.658Z,37.16
2023-04-18T00:52:22.247Z,36.97
2023-04-18T00:54:48.826Z,36.97
2023-04-18T00:57:15.375Z,37.32
2023-04-18T00:59:41.911Z,37.42
2023-04-18T01:02:08.540Z,37.07
2023-04-18T01:04:35.131Z,37.25
2023-04-18T01:07:01.704Z,37.04
2023-04-18T01:09:28.209Z,37.37
2023-04-18T01:11:54.789Z,37.34
2023-04-18T01:14:21.290Z,37.30
2023-04-18T01:16:47.855Z,37.42
2023-04-18T01:19:14.384Z,36.99
2023-04-18T01:21:41.010Z,37.03
2023-04-18T01:24:07.530Z,37.33
2023-04-18T01:26:34.072Z,36.97
2023-04-18T01:29:00.597Z,36.90
2023-04-18T01:31:27.395Z,37.00
2023-04-18T01:33:53.969Z,36.77
2023-04-18T01:36:20.401Z,37.21
2023-04-18T01:38:46.898Z,37.12
2023-04-18T01:41:13.472Z,36.91
2023-04-18T01:43:40.072Z,37.12
2023-04-18T01:46:06.646Z,36.93
2023-04-18T01:48:33.202Z,36.98
2023-04-18T01:50:59.658Z,36.75
2023-04-18T01:53:26.250Z,37.05
2023-04-18T01:55:52.787Z,36.94
2023-04-18T01:58:21.100Z,36.92
2023-04-18T02:00:47.646Z,37.11
2023-04-18T02:03:14.445Z,36.87
2023-04-18T02:05:41.190Z,36.81
2023-04-18T02:08:07.766Z,37.04
2023-04-18T02:10:34.300Z,36.89
2023-04-18T02:13:00.713Z,36.64
2023-04-18T02:15:27.204Z,36.99
2023-04-18T02:17:53.785Z,37.15
2023-04-18T02:20:20.372Z,37.14
2023-04-18T02:22:46.901Z,37.01
2023-04-18T02:25:13.423Z,37.19
2023-04-18T02:27:40.046Z,37.04
2023-04-18T02:30:06.542Z,37.18
2023-04-18T02:32:33.098Z,37.31
2023-04-18T02:34:59.607Z,36.84
2023-04-18T02:37:26.168Z,37.00
2023-04-18T02:39:52.640Z,37.16
2023-04-18T02:42:19.211Z,37.07
2023-04-18T02:44:45.799Z,37.37
2023-04-18T02:47:12.297Z,36.94
2023-04-18T02:49:38.807Z,37.27
2023-04-18T02:52:05.349Z,37.08
2023-04-18T02:54:31.829Z,37.04
2023-04-18T02:56:58.325Z,37.14
2023-04-18T02:59:24.930Z,36.70
2023-04-18T03:01:51.456Z,36.63
2023-04-18T03:04:18.161Z,36.55
2023-04-18T03:06:44.745Z,36.63
2023-04-18T03:09:11.224Z,36.60
2023-04-18T03:11:37.731Z,36.72
2023-04-18T03:14:04.290Z,36.82
2023-04-18T03:16:30.713Z,36.67
2023-04-18T03:18:57.249Z,36.77
2023-04-18T03:21:23.763Z,36.67
2023-04-18T03:23:50.242Z,36.92
2023-04-18T03:26:16.858Z,36.69
2023-04-18T03:28:43.430Z,36.67
2023-04-18T03:31:10.104Z,37.16
2023-04-18T03:33:36.785Z,36.98
2023-04-18T03:36:03.320Z,36.65
2023-04-18T03:38:29.865Z,36.64
2023-04-18T03:40:56.433Z,36.51
2023-04-18T03:43:24.040Z,36.41
2023-04-18T03:45:50.647Z,36.31
2023-04-18T03:48:17.220Z,36.44
2023-04-18T03:50:43.728Z,36.50
2023-04-18T03:53:10.267Z,36.52
2023-04-18T03:55:36.868Z,36.66
2023-04-18T03:58:03.423Z,36.90
2023-04-18T04:00:30.056Z,36.71
2023-04-18T04:02:56.837Z,36.81
2023-04-18T04:05:23.572Z,36.67
2023-04-18T04:07:50.213Z,36.97
2023-04-18T04:10:16.809Z,36.89
2023-04-18T04:12:43.347Z,37.24
2023-04-18T04:15:09.884Z,37.12
2023-04-18T04:17:36.596Z,36.99
2023-04-18T04:20:03.129Z,37.08
2023-04-18T04:22:29.779Z,36.80
2023-04-18T04:24:56.301Z,36.87
2023-04-18T04:27:22.821Z,36.94
2023-04-18T04:29:49.372Z,36.93
2023-04-18T04:32:18.782Z,36.84
2023-04-18T04:34:45.337Z,36.79
2023-04-18T04:37:11.871Z,36.82
2023-04-18T04:39:38.445Z,36.77
2023-04-18T04:42:04.947Z,37.07
2023-04-18T04:44:31.500Z,36.78
2023-04-18T04:46:58.006Z,36.93
2023-04-18T04:49:24.496Z,37.09
2023-04-18T04:51:50.941Z,37.06
2023-04-18T04:54:17.388Z,37.14
2023-04-18T04:56:43.858Z,36.96
2023-04-18T04:59:10.343Z,37.28
2023-04-18T05:01:36.854Z,36.99
2023-04-18T05:04:03.450Z,37.20
2023-04-18T05:06:30.005Z,36.93
2023-04-18T05:08:56.426Z,37.20
2023-04-18T05:11:22.938Z,37.12
2023-04-18T05:13:49.407Z,37.18
2023-04-18T05:16:18.467Z,37.07
2023-04-18T05:18:44.908Z,37.12
2023-04-18T05:21:11.419Z,36.94
2023-04-18T05:23:37.908Z,37.24
2023-04-18T05:26:04.416Z,37.07
2023-04-18T05:28:30.839Z,37.12
2023-04-18T05:30:57.397Z,37.27
2023-04-18T05:33:23.866Z,37.27
2023-04-18T05:35:50.400Z,37.04
2023-04-18T05:38:16.848Z,36.93
2023-04-18T05:40:43.339Z,36.59
2023-04-18T05:43:09.783Z,36.69
2023-04-18T05:45:36.255Z,36.66
2023-04-18T05:48:02.825Z,36.55
2023-04-18T05:50:29.270Z,37.05
2023-04-18T05:52:55.695Z,36.93
2023-04-18T05:55:22.107Z,37.23
2023-04-18T05:57:48.495Z,37.55
2023-04-18T06:00:15.030Z,38.08
2023-04-18T06:02:44.388Z,38.34
2023-04-18T06:05:11.119Z,39.10
2023-04-18T06:07:37.754Z,39.82
2023-04-18T06:10:04.279Z,38.84
2023-04-18T06:12:30.758Z,38.25
2023-04-18T06:14:57.253Z,38.18
2023-04-18T06:17:23.673Z,38.59
2023-04-18T06:19:50.367Z,40.54
2023-04-18T06:22:16.804Z,40.83
2023-04-18T06:24:43.438Z,40.11
2023-04-18T06:27:17.704Z,41.44
2023-04-18T06:29:56.242Z,39.75
2023-04-18T06:32:22.787Z,41.91
2023-04-18T06:34:50.513Z,40.63
2023-04-18T06:37:17.590Z,41.10
2023-04-18T06:39:44.819Z,41.08
2023-04-18T06:42:11.335Z,41.03
2023-04-18T06:44:37.832Z,40.96
2023-04-18T06:47:04.444Z,41.71
2023-04-18T06:49:30.865Z,41.55
2023-04-18T06:51:57.304Z,41.17
2023-04-18T06:54:24.659Z,41.13
2023-04-18T06:56:51.192Z,40.69
2023-04-18T06:59:17.680Z,40.65
2023-04-18T07:01:44.193Z,40.85
2023-04-18T07:04:10.844Z,40.37
2023-04-18T07:06:37.626Z,40.42
2023-04-18T07:09:04.197Z,40.82
2023-04-18T07:11:30.680Z,40.80
2023-04-18T07:13:57.454Z,40.70
2023-04-18T07:16:23.960Z,39.98
2023-04-18T07:18:50.443Z,39.91
2023-04-18T07:21:16.943Z,39.70
2023-04-18T07:23:43.389Z,39.19
2023-04-18T07:26:09.926Z,38.91
2023-04-18T07:28:36.490Z,39.17
2023-04-18T07:31:03.011Z,38.70
2023-04-18T07:33:29.500Z,38.42
2023-04-18T07:35:56.019Z,38.77
2023-04-18T07:38:22.551Z,38.53
2023-04-18T07:40:49.134Z,38.76
2023-04-18T07:43:15.662Z,37.99
2023-04-18T07:45:42.227Z,38.54
2023-04-18T07:48:08.736Z,38.67
2023-04-18T07:50:35.304Z,38.79
2023-04-18T07:53:01.824Z,38.53
2023-04-18T07:55:28.390Z,38.62
2023-04-18T07:57:54.837Z,37.97
2023-04-18T08:00:21.327Z,37.48
2023-04-18T08:02:48.821Z,37.46
2023-04-18T08:05:15.498Z,37.69
2023-04-18T08:07:42.147Z,37.53
2023-04-18T08:10:08.715Z,37.35
2023-04-18T08:12:35.234Z,37.30
2023-04-18T08:15:01.904Z,37.45
2023-04-18T08:17:28.428Z,37.35
2023-04-18T08:19:54.982Z,37.32
2023-04-18T08:22:21.512Z,36.99
2023-04-18T08:25:03.364Z,36.77
2023-04-18T08:27:31.213Z,37.26
2023-04-18T08:29:57.697Z,37.25
2023-04-18T08:32:24.189Z,37.60
2023-04-18T08:34:50.698Z,37.43
2023-04-18T08:37:17.212Z,37.34
2023-04-18T08:39:43.720Z,36.71
2023-04-18T08:42:10.231Z,36.57
2023-04-18T08:44:36.781Z,36.51
2023-04-18T08:47:03.318Z,36.46
2023-04-18T08:49:29.888Z,36.58
2023-04-18T08:51:56.446Z,36.46
2023-04-18T08:54:23.567Z,36.57
2023-04-18T08:56:51.127Z,36.75
2023-04-18T08:59:17.619Z,36.95
2023-04-18T09:01:44.089Z,36.85
2023-04-18T09:04:10.629Z,36.87
2023-04-18T09:06:37.144Z,36.82
2023-04-18T09:09:03.728Z,36.80
2023-04-18T09:11:30.228Z,37.67
2023-04-18T09:13:56.788Z,37.02
2023-04-18T09:16:23.366Z,37.06
2023-04-18T09:18:49.980Z,36.98
2023-04-18T09:21:16.596Z,36.68
2023-04-18T09:23:43.230Z,36.65
2023-04-18T09:26:09.787Z,36.51
2023-04-18T09:28:36.344Z,36.36
2023-04-18T09:31:02.971Z,36.53
2023-04-18T09:33:29.607Z,36.48
2023-04-18T09:35:56.177Z,36.37
2023-04-18T09:38:22.733Z,36.29
2023-04-18T09:40:49.232Z,36.57
2023-04-18T09:43:15.765Z,36.34
2023-04-18T09:45:42.347Z,36.54
2023-04-18T09:48:08.930Z,36.45
2023-04-18T09:50:35.506Z,36.67
2023-04-18T09:53:02.032Z,36.40
2023-04-18T09:55:28.569Z,36.25
2023-04-18T09:57:55.155Z,36.63
2023-04-18T10:00:21.738Z,36.80
2023-04-18T10:02:48.354Z,36.73
2023-04-18T10:05:14.887Z,36.76
2023-04-18T10:07:41.430Z,36.75
2023-04-18T10:10:08.000Z,36.89
2023-04-18T10:12:34.535Z,37.21
2023-04-18T10:15:01.051Z,36.51
2023-04-18T10:17:29.287Z,36.94
2023-04-18T10:19:56.292Z,36.90
2023-04-18T10:22:22.856Z,36.80
2023-04-18T10:24:49.376Z,36.68
2023-04-18T10:27:15.890Z,36.46
2023-04-18T10:29:42.441Z,36.75
2023-04-18T10:32:08.956Z,36.94
2023-04-18T10:34:35.607Z,36.90
2023-04-18T10:37:02.173Z,36.65
2023-04-18T10:39:28.645Z,36.88
2023-04-18T10:41:55.178Z,36.95
2023-04-18T10:44:21.707Z,36.83
2023-04-18T10:46:48.317Z,36.64
2023-04-18T10:49:15.062Z,36.37
2023-04-18T10:51:41.994Z,36.27
2023-04-18T10:54:08.555Z,36.52
2023-04-18T10:56:35.057Z,36.89
2023-04-18T10:59:01.666Z,36.42
2023-04-18T11:01:31.698Z,37.03
2023-04-18T11:03:58.917Z,37.09
2023-04-18T11:06:25.566Z,36.78
2023-04-18T11:08:52.365Z,37.28
2023-04-18T11:11:19.511Z,36.98
2023-04-18T11:13:46.728Z,37.23
2023-04-18T11:16:13.279Z,37.76
2023-04-18T11:18:39.791Z,37.03
2023-04-18T11:21:06.307Z,37.25
2023-04-18T11:23:32.850Z,37.56
2023-04-18T11:25:59.335Z,37.59
2023-04-18T11:28:25.840Z,37.07
2023-04-18T11:30:55.416Z,37.30
2023-04-18T11:33:21.950Z,37.21
2023-04-18T11:35:48.487Z,37.08
2023-04-18T11:38:15.048Z,37.44
2023-04-18T11:40:41.768Z,37.16
2023-04-18T11:43:08.265Z,37.01
2023-04-18T11:45:34.818Z,37.02
2023-04-18T11:48:01.539Z,37.20
2023-04-18T11:50:28.112Z,37.16
2023-04-18T11:52:54.626Z,37.47
2023-04-18T11:55:21.200Z,37.70
2023-04-18T11:57:47.765Z,37.24
2023-04-18T12:00:14.239Z,37.48
2023-04-18T12:02:40.913Z,37.65
2023-04-18T12:05:07.887Z,37.60
2023-04-18T12:07:34.667Z,37.56
2023-04-18T12:10:01.182Z,37.92
2023-04-18T12:12:27.659Z,37.38
2023-04-18T12:14:54.215Z,37.25
2023-04-18T12:17:20.681Z,37.39
2023-04-18T12:19:49.221Z,37.05
2023-04-18T12:22:16.311Z,36.89
2023-04-18T12:24:42.814Z,37.19
2023-04-18T12:27:09.348Z,37.31
2023-04-18T12:29:35.820Z,37.21
2023-04-18T12:32:02.399Z,37.12
2023-04-18T12:34:28.964Z,37.52
2023-04-18T12:36:55.482Z,37.66
2023-04-18T12:39:21.991Z,37.69
2023-04-18T12:41:49.820Z,37.59
2023-04-18T12:44:16.605Z,37.75
2023-04-18T12:46:43.173Z,37.79
2023-04-18T12:49:09.745Z,37.70
2023-04-18T12:51:36.323Z,37.77
2023-04-18T12:54:02.949Z,37.34
2023-04-18T12:56:29.463Z,37.56
2023-04-18T12:58:55.903Z,37.30
2023-04-18T13:01:22.440Z,37.11
2023-04-18T13:03:59.974Z,37.02
2023-04-18T13:06:35.306Z,36.81
2023-04-18T13:09:01.756Z,37.14
2023-04-18T13:11:28.280Z,37.16
2023-04-18T13:13:54.772Z,37.78
2023-04-18T13:16:21.360Z,37.80
2023-04-18T13:18:47.845Z,37.67
2023-04-18T13:21:14.364Z,37.71
2023-04-18T13:23:40.876Z,37.42
2023-04-18T13:26:07.382Z,37.38
2023-04-18T13:28:34.142Z,37.55
2023-04-18T13:31:00.837Z,37.14
2023-04-18T13:33:27.401Z,37.19
2023-04-18T13:35:53.980Z,37.34
2023-04-18T13:38:20.637Z,36.79
2023-04-18T13:40:47.213Z,36.56
2023-04-18T13:43:13.683Z,36.85
2023-04-18T13:45:40.287Z,36.26
2023-04-18T13:48:06.925Z,36.63
2023-04-18T13:50:33.456Z,36.26
2023-04-18T13:53:00.030Z,36.65
2023-04-18T13:55:26.521Z,36.81
2023-04-18T13:57:53.014Z,36.63
2023-04-18T14:00:19.552Z,36.63
2023-04-18T14:02:48.678Z,36.65
2023-04-18T14:05:15.316Z,36.80
2023-04-18T14:07:41.800Z,36.76
2023-04-18T14:10:08.383Z,36.78
2023-04-18T14:12:34.927Z,36.34
2023-04-18T14:15:01.372Z,36.26
2023-04-18T14:17:27.832Z,36.27
2023-04-18T14:19:54.332Z,36.50
2023-04-18T14:22:20.858Z,36.70
2023-04-18T14:24:47.300Z,36.45
2023-04-18T14:27:13.854Z,36.55
2023-04-18T14:29:40.381Z,36.28
2023-04-18T14:32:06.944Z,36.32
2023-04-18T14:34:34.324Z,35.88
2023-04-18T14:37:01.849Z,35.86
2023-04-18T14:39:28.314Z,35.74
2023-04-18T14:41:54.737Z,35.51
2023-04-18T14:44:21.265Z,35.37
2023-04-18T14:46:47.796Z,35.44
2023-04-18T14:49:14.618Z,35.43
2023-04-18T14:51:41.336Z,35.47
2023-04-18T14:54:07.814Z,34.96
2023-04-18T14:56:34.263Z,34.96
2023-04-18T14:59:02.383Z,33.82
2023-04-18T15:01:29.098Z,33.35
2023-04-18T15:03:55.779Z,32.71
2023-04-18T15:06:22.450Z,32.53
2023-04-18T15:08:49.118Z,32.19
2023-04-18T15:11:15.680Z,32.45
2023-04-18T15:13:42.383Z,32.82
2023-04-18T15:16:08.965Z,32.53
2023-04-18T15:18:35.458Z,32.44
2023-04-18T15:21:02.169Z,32.89
2023-04-18T15:23:28.651Z,32.81
2023-04-18T15:25:55.113Z,32.69
2023-04-18T15:28:21.510Z,32.92
2023-04-18T15:30:47.925Z,32.67
2023-04-18T15:33:14.849Z,33.07
2023-04-18T15:35:41.473Z,32.58
2023-04-18T15:38:07.978Z,31.88
2023-04-18T15:40:34.423Z,32.33
2023-04-18T15:43:00.944Z,32.16
2023-04-18T15:45:28.808Z,31.76
2023-04-18T15:47:55.379Z,32.48
2023-04-18T15:50:21.920Z,32.38
2023-04-18T15:52:51.455Z,31.95
2023-04-18T15:55:18.010Z,31.50
2023-04-18T15:57:44.482Z,31.62
2023-04-18T16:00:10.891Z,31.98
2023-04-18T16:02:37.435Z,31.42
2023-04-18T16:05:04.032Z,31.97
2023-04-18T16:07:30.564Z,31.81
2023-04-18T16:09:57.117Z,32.03
2023-04-18T16:12:23.667Z,31.55
2023-04-18T16:14:50.114Z,31.71
2023-04-18T16:17:16.641Z,31.67
2023-04-18T16:19:43.184Z,31.97
2023-04-18T16:22:09.636Z,31.63
2023-04-18T16:24:36.109Z,31.55
2023-04-18T16:27:02.548Z,31.82
2023-04-18T16:29:29.077Z,31.46
2023-04-18T16:31:55.579Z,31.63
2023-04-18T16:34:22.087Z,31.48
2023-04-18T16:36:50.804Z,32.16
2023-04-18T16:39:17.693Z,32.49
2023-04-18T16:41:44.220Z,32.39
2023-04-18T16:44:10.692Z,32.64
2023-04-18T16:46:37.358Z,33.16
2023-04-18T16:49:03.951Z,33.10
2023-04-18T16:51:30.487Z,33.35
2023-04-18T16:53:57.103Z,33.49
2023-04-18T16:56:23.685Z,33.53
2023-04-18T16:58:50.175Z,34.18
2023-04-18T17:01:16.648Z,33.89
2023-04-18T17:03:43.207Z,34.97
2023-04-18T17:06:09.773Z,33.94
2023-04-18T17:08:36.277Z,33.93
2023-04-18T17:11:02.705Z,33.36
2023-04-18T17:13:29.149Z,32.37
2023-04-18T17:15:55.731Z,31.50
2023-04-18T17:18:22.414Z,31.02
2023-04-18T17:20:48.999Z,31.48
2023-04-18T17:23:15.479Z,31.58
2023-04-18T17:25:41.985Z,32.02
2023-04-18T17:28:08.562Z,34.00
2023-04-18T17:30:35.020Z,34.56
2023-04-18T17:33:01.496Z,35.01
2023-04-18T17:35:28.061Z,35.30
2023-04-18T17:37:54.526Z,34.79
2023-04-18T17:40:21.004Z,35.22
2023-04-18T17:42:47.513Z,35.74
2023-04-18T17:45:14.057Z,35.86
2023-04-18T17:47:40.679Z,35.99
2023-04-18T17:50:07.192Z,35.98
2023-04-18T17:52:33.674Z,35.87
2023-04-18T17:55:00.161Z,36.35
2023-04-18T17:57:26.722Z,36.17
2023-04-18T17:59:53.170Z,36.44
2023-04-18T18:02:19.647Z,36.61
2023-04-18T18:04:46.163Z,36.69
2023-04-18T18:07:12.669Z,36.79
2023-04-18T18:09:39.097Z,36.60
2023-04-18T18:12:05.569Z,36.78
2023-04-18T18:14:32.067Z,36.80
2023-04-18T18:16:59.694Z,37.13
2023-04-18T18:19:26.174Z,36.96
2023-04-18T18:21:52.683Z,36.98
2023-04-18T18:24:19.167Z,37.03
2023-04-18T18:26:45.739Z,37.08
2023-04-18T18:29:12.338Z,36.68
2023-04-18T18:31:39.070Z,36.57
2023-04-18T18:34:05.579Z,37.32
2023-04-18T18:36:31.991Z,37.66
2023-04-18T18:38:58.485Z,36.66
2023-04-18T18:41:24.979Z,36.91
2023-04-18T18:43:51.415Z,36.68
2023-04-18T18:46:18.182Z,37.09
2023-04-18T18:48:44.765Z,37.45
2023-04-18T18:51:11.580Z,37.65
2023-04-18T18:53:40.257Z,37.75
2023-04-18T18:56:07.167Z,38.06
2023-04-18T18:58:33.583Z,38.03
2023-04-18T19:01:00.074Z,38.59
2023-04-18T19:03:26.703Z,38.64
2023-04-18T19:05:53.319Z,38.93
2023-04-18T19:08:19.818Z,38.98
2023-04-18T19:10:46.252Z,38.71
2023-04-18T19:13:14.532Z,39.02
2023-04-18T19:15:40.949Z,39.27
2023-04-18T19:18:08.926Z,39.59
2023-04-18T19:20:35.530Z,39.67
2023-04-18T19:23:01.943Z,39.37
2023-04-18T19:25:28.421Z,39.58
2023-04-18T19:27:56.295Z,39.89
2023-04-18T19:30:22.785Z,39.79
2023-04-18T19:32:49.305Z,39.49
2023-04-18T19:35:15.914Z,39.64
2023-04-18T19:37:42.442Z,39.70
2023-04-18T19:40:08.953Z,39.95
2023-04-18T19:42:35.505Z,41.03
2023-04-18T19:45:01.998Z,40.97
2023-04-18T19:47:28.542Z,40.71
2023-04-18T19:49:55.648Z,40.28
2023-04-18T19:52:22.346Z,40.24
2023-04-18T19:54:48.925Z,40.18
2023-04-18T19:57:15.445Z,40.31
2023-04-18T19:59:41.879Z,40.66
2023-04-18T20:02:08.464Z,40.74
2023-04-18T20:04:35.206Z,40.70
2023-04-18T20:07:01.856Z,40.63
2023-04-18T20:09:28.389Z,40.70
2023-04-18T20:11:54.886Z,41.09
2023-04-18T20:14:21.333Z,40.79
2023-04-18T20:16:47.860Z,41.10
2023-04-18T20:19:17.657Z,41.18
2023-04-18T20:21:44.499Z,41.54
2023-04-18T20:24:11.042Z,41.20
2023-04-18T20:26:37.554Z,41.71
2023-04-18T20:29:04.111Z,41.40
2023-04-18T20:31:30.713Z,41.22
2023-04-18T20:33:57.339Z,40.88
2023-04-18T20:36:23.899Z,41.52
2023-04-18T20:38:50.349Z,41.63
2023-04-18T20:41:16.974Z,41.19
2023-04-18T20:43:43.553Z,40.73
2023-04-18T20:46:10.161Z,41.23
2023-04-18T20:48:36.655Z,40.94
2023-04-18T20:51:03.231Z,41.74
2023-04-18T20:53:29.756Z,41.40
2023-04-18T20:55:56.351Z,41.66
2023-04-18T20:58:22.924Z,41.58
2023-04-18T21:00:49.448Z,41.77
2023-04-18T21:03:16.219Z,41.67
2023-04-18T21:05:43.016Z,41.62
2023-04-18T21:08:09.518Z,41.80
2023-04-18T21:10:36.035Z,41.74
2023-04-18T21:13:02.547Z,41.79
2023-04-18T21:15:29.162Z,42.00
2023-04-18T21:17:55.863Z,41.69
2023-04-18T21:20:22.461Z,41.64
2023-04-18T21:22:49.037Z,41.91
2023-04-18T21:25:15.576Z,41.65
2023-04-18T21:27:42.070Z,41.31
2023-04-18T21:30:08.687Z,41.52
2023-04-18T21:32:35.245Z,41.11
2023-04-18T21:35:01.845Z,41.56
2023-04-18T21:37:28.291Z,41.74
2023-04-18T21:39:54.808Z,41.80
2023-04-18T21:42:21.357Z,41.99
2023-04-18T21:44:47.877Z,42.07
2023-04-18T21:47:14.409Z,41.72
2023-04-18T21:49:40.961Z,41.81
2023-04-18T21:52:07.446Z,42.20
2023-04-18T21:54:33.994Z,42.22
2023-04-18T21:57:00.524Z,42.40
2023-04-18T21:59:27.085Z,42.14
2023-04-18T22:01:53.617Z,41.54
2023-04-18T22:04:20.423Z,41.86
2023-04-18T22:06:47.179Z,41.72
2023-04-18T22:09:13.707Z,41.71
2023-04-18T22:11:40.286Z,42.06
2023-04-18T22:14:06.792Z,41.86
2023-04-18T22:16:33.429Z,41.93
2023-04-18T22:18:59.917Z,41.89
2023-04-18T22:21:26.437Z,42.02
2023-04-18T22:23:53.016Z,41.95
2023-04-18T22:26:19.535Z,42.19
2023-04-18T22:28:46.113Z,41.74
2023-04-18T22:31:12.653Z,42.03
2023-04-18T22:33:39.178Z,41.97
2023-04-18T22:36:05.750Z,41.88
2023-04-18T22:38:32.315Z,41.78
2023-04-18T22:40:58.899Z,42.27
2023-04-18T22:43:25.381Z,41.96
2023-04-18T22:45:51.894Z,41.89
2023-04-18T22:48:18.491Z,42.24
2023-04-18T22:50:45.028Z,42.36
2023-04-18T22:53:11.587Z,42.12
2023-04-18T22:55:38.171Z,42.17
2023-04-18T22:58:04.834Z,42.31
2023-04-18T23:00:31.385Z,41.83
2023-04-18T23:02:58.025Z,41.85
2023-04-18T23:05:24.621Z,41.96
2023-04-18T23:07:51.252Z,42.03
2023-04-18T23:10:17.829Z,41.80
2023-04-18T23:12:44.358Z,41.85
2023-04-18T23:15:11.049Z,41.81
2023-04-18T23:17:37.686Z,41.94
2023-04-18T23:20:06.041Z,41.77
2023-04-18T23:22:32.503Z,41.79
2023-04-18T23:24:59.036Z,41.87
2023-04-18T23:27:25.573Z,41.64
2023-04-18T23:29:52.071Z,41.91
2023-04-18T23:32:18.559Z,41.60
2023-04-18T23:34:47.859Z,41.76
2023-04-18T23:37:14.341Z,41.69
2023-04-18T23:39:40.841Z,41.87
2023-04-18T23:42:07.338Z,41.76
2023-04-18T23:44:33.884Z,41.74
2023-04-18T23:47:00.416Z,41.78
2023-04-18T23:49:26.980Z,41.71
2023-04-18T23:51:53.590Z,41.68
2023-04-18T23:54:20.081Z,41.88
2023-04-18T23:56:46.655Z,41.48
2023-04-18T23:59:13.194Z,41.38
